createdAt,value
2019-01-12T00:02:22.510Z,100249.21
2019-01-12T00:05:27.767Z,100239.20
2019-01-12T00:08:33.560Z,100243.89
2019-01-12T00:11:38.750Z,100243.50
2019-01-12T00:14:44.133Z,100236.23
2019-01-12T00:17:49.367Z,100229.27
2019-01-12T00:20:54.499Z,100226.09
2019-01-12T00:23:59.754Z,100232.22
2019-01-12T00:27:05.242Z,100219.36
2019-01-12T00:30:10.761Z,100227.28
2019-01-12T00:33:16.039Z,100228.92
2019-01-12T00:36:21.299Z,100229.96
2019-01-12T00:39:26.518Z,100226.28
2019-01-12T00:42:31.708Z,100231.34
2019-01-12T00:45:36.909Z,100227.37
2019-01-12T00:48:42.114Z,100234.39
2019-01-12T00:51:47.319Z,100236.23
2019-01-12T00:54:52.663Z,100239.33
2019-01-12T00:57:57.802Z,100231.03
2019-01-12T01:01:02.982Z,100239.28
2019-01-12T01:04:08.192Z,100236.50
2019-01-12T01:07:13.433Z,100232.70
2019-01-12T01:10:20.472Z,100241.19
2019-01-12T01:13:25.728Z,100241.05
2019-01-12T01:16:30.948Z,100249.69
2019-01-12T01:19:36.157Z,100248.23
2019-01-12T01:22:41.358Z,100262.73
2019-01-12T01:25:47.592Z,100263.45
2019-01-12T01:28:52.883Z,100263.14
2019-01-12T01:31:58.044Z,100270.94
2019-01-12T01:35:03.217Z,100269.02
2019-01-12T01:38:08.390Z,100274.22
2019-01-12T01:41:13.627Z,100271.31
2019-01-12T01:44:18.886Z,100267.82
2019-01-12T01:47:23.866Z,100271.80
2019-01-12T01:50:29.095Z,100271.75
2019-01-12T01:53:34.279Z,100275.10
2019-01-12T01:56:39.496Z,100271.61
2019-01-12T01:59:44.727Z,100272.08
2019-01-12T02:02:49.918Z,100266.59
2019-01-12T02:05:55.074Z,100274.08
2019-01-12T02:09:00.297Z,100265.47
2019-01-12T02:12:05.750Z,100258.83
2019-01-12T02:15:12.095Z,100263.33
2019-01-12T02:18:17.415Z,100258.73
2019-01-12T02:21:22.574Z,100262.12
2019-01-12T02:24:27.785Z,100258.77
2019-01-12T02:27:33.047Z,100260.47
2019-01-12T02:30:38.263Z,100260.95
2019-01-12T02:33:43.477Z,100258.10
2019-01-12T02:36:48.676Z,100256.80
2019-01-12T02:39:58.036Z,100255.82
2019-01-12T02:43:04.467Z,100259.50
2019-01-12T02:46:09.900Z,100260.78
2019-01-12T02:49:15.143Z,100250.77
2019-01-12T02:52:20.381Z,100257.48
2019-01-12T02:55:25.693Z,100255.96
2019-01-12T02:58:30.865Z,100250.69
2019-01-12T03:01:36.151Z,100249.51
2019-01-12T03:04:41.331Z,100247.14
2019-01-12T03:07:46.497Z,100252.86
2019-01-12T03:10:51.719Z,100250.45
2019-01-12T03:13:57.100Z,100250.25
2019-01-12T03:17:02.287Z,100242.51
2019-01-12T03:20:09.556Z,100241.64
2019-01-12T03:23:14.814Z,100233.78
2019-01-12T03:26:19.988Z,100230.98
2019-01-12T03:29:25.238Z,100229.58
2019-01-12T03:32:30.446Z,100231.36
2019-01-12T03:35:35.734Z,100222.23
2019-01-12T03:38:40.953Z,100222.55
2019-01-12T03:41:46.102Z,100225.27
2019-01-12T03:44:51.351Z,100228.31
2019-01-12T03:47:56.540Z,100224.82
2019-01-12T03:51:01.850Z,100223.67
2019-01-12T03:54:07.034Z,100217.61
2019-01-12T03:57:12.137Z,100214.61
2019-01-12T04:00:19.922Z,100213.67
2019-01-12T04:03:25.081Z,100215.28
2019-01-12T04:06:30.296Z,100207.66
2019-01-12T04:09:36.587Z,100205.58
2019-01-12T04:12:41.807Z,100204.59
2019-01-12T04:15:47.038Z,100195.12
2019-01-12T04:18:52.205Z,100192.13
2019-01-12T04:21:57.325Z,100202.70
2019-01-12T04:25:02.529Z,100203.38
2019-01-12T04:28:07.737Z,100203.34
2019-01-12T04:31:12.924Z,100201.22
2019-01-12T04:34:18.075Z,100195.17
2019-01-12T04:37:23.223Z,100191.02
2019-01-12T04:40:28.607Z,100189.27
2019-01-12T04:43:33.718Z,100197.63
2019-01-12T04:46:38.949Z,100193.37
2019-01-12T04:49:44.146Z,100195.35
2019-01-12T04:52:49.256Z,100196.74
2019-01-12T04:55:54.406Z,100189.84
2019-01-12T04:58:59.616Z,100188.83
2019-01-12T05:02:04.877Z,100192.16
2019-01-12T05:05:10.641Z,100187.95
2019-01-12T05:08:15.887Z,100190.77
2019-01-12T05:11:21.076Z,100197.47
2019-01-12T05:14:26.380Z,100190.47
2019-01-12T05:17:31.539Z,100190.83
2019-01-12T05:20:36.788Z,100188.80
2019-01-12T05:23:41.904Z,100182.13
2019-01-12T05:26:48.150Z,100189.16
2019-01-12T05:29:53.306Z,100189.13
2019-01-12T05:32:58.474Z,100186.31
2019-01-12T05:36:03.650Z,100186.48
2019-01-12T05:39:08.849Z,100185.17
2019-01-12T05:42:14.057Z,100182.48
2019-01-12T05:45:19.251Z,100178.51
2019-01-12T05:48:24.437Z,100179.64
2019-01-12T05:51:29.707Z,100190.48
2019-01-12T05:54:34.879Z,100187.82
2019-01-12T05:57:40.060Z,100191.36
2019-01-12T06:00:45.267Z,100189.51
2019-01-12T06:03:50.634Z,100182.50
2019-01-12T06:06:55.816Z,100190.50
2019-01-12T06:10:01.092Z,100182.69
2019-01-12T06:13:06.173Z,100186.19
2019-01-12T06:16:11.316Z,100182.69
2019-01-12T06:19:16.518Z,100185.19
2019-01-12T06:22:21.735Z,100185.69
2019-01-12T06:25:26.986Z,100191.20
2019-01-12T06:28:32.209Z,100187.02
2019-01-12T06:31:37.422Z,100181.34
2019-01-12T06:34:42.636Z,100192.19
2019-01-12T06:37:47.759Z,100195.53
2019-01-12T06:40:52.924Z,100191.68
2019-01-12T06:43:58.048Z,100196.84
2019-01-12T06:47:03.268Z,100198.86
2019-01-12T06:50:09.682Z,100200.36
2019-01-12T06:53:14.883Z,100213.73
2019-01-12T06:56:20.098Z,100212.38
2019-01-12T06:59:25.225Z,100205.20
2019-01-12T07:02:30.325Z,100198.54
2019-01-12T07:05:35.537Z,100197.19
2019-01-12T07:08:40.755Z,100206.05
2019-01-12T07:11:45.955Z,100204.54
2019-01-12T07:14:51.154Z,100204.86
2019-01-12T07:17:56.298Z,100199.69
2019-01-12T07:21:15.908Z,100194.88
2019-01-12T07:24:21.113Z,100207.05
2019-01-12T07:27:26.334Z,100207.53
2019-01-12T07:30:31.627Z,100210.70
2019-01-12T07:33:36.805Z,100207.05
2019-01-12T07:36:42.082Z,100202.54
2019-01-12T07:39:47.206Z,100209.21
2019-01-12T07:42:52.427Z,100207.70
2019-01-12T07:45:57.584Z,100215.55
2019-01-12T07:49:02.783Z,100216.55
2019-01-12T07:52:09.620Z,100206.89
2019-01-12T07:55:14.925Z,100215.56
2019-01-12T07:58:20.081Z,100219.08
2019-01-12T08:01:25.276Z,100208.20
2019-01-12T08:04:30.654Z,100215.06
2019-01-12T08:07:35.844Z,100226.25
2019-01-12T08:10:41.107Z,100224.08
2019-01-12T08:13:46.393Z,100214.06
2019-01-12T08:16:51.610Z,100208.20
2019-01-12T08:19:56.821Z,100207.21
2019-01-12T08:23:01.948Z,100204.86
2019-01-12T08:26:07.149Z,100202.20
2019-01-12T08:29:12.327Z,100203.03
2019-01-12T08:32:17.442Z,100205.88
2019-01-12T08:35:22.710Z,100207.23
2019-01-12T08:38:28.026Z,100206.70
2019-01-12T08:41:33.277Z,100208.38
2019-01-12T08:44:38.457Z,100199.52
2019-01-12T08:47:43.666Z,100201.33
2019-01-12T08:50:48.822Z,100196.81
2019-01-12T08:53:53.954Z,100184.98
2019-01-12T08:56:59.192Z,100176.95
2019-01-12T09:00:06.139Z,100185.14
2019-01-12T09:03:11.385Z,100176.72
2019-01-12T09:06:16.558Z,100176.11
2019-01-12T09:09:21.807Z,100174.39
2019-01-12T09:12:26.990Z,100172.42
2019-01-12T09:15:32.246Z,100164.41
2019-01-12T09:18:37.427Z,100170.71
2019-01-12T09:21:42.723Z,100165.34
2019-01-12T09:24:47.857Z,100170.34
2019-01-12T09:27:53.080Z,100165.02
2019-01-12T09:30:58.249Z,100159.67
2019-01-12T09:34:03.440Z,100164.38
2019-01-12T09:37:09.642Z,100164.67
2019-01-12T09:40:17.045Z,100156.77
2019-01-12T09:43:22.207Z,100154.58
2019-01-12T09:46:27.392Z,100150.21
2019-01-12T09:49:32.616Z,100137.33
2019-01-12T09:52:37.735Z,100133.83
2019-01-12T09:55:43.024Z,100133.45
2019-01-12T09:58:48.165Z,100130.02
2019-01-12T10:01:53.438Z,100131.55
2019-01-12T10:04:58.741Z,100123.33
2019-01-12T10:08:04.482Z,100130.68
2019-01-12T10:11:09.632Z,100119.72
2019-01-12T10:14:14.715Z,100107.63
2019-01-12T10:17:20.970Z,100109.48
2019-01-12T10:20:26.202Z,100103.87
2019-01-12T10:23:31.389Z,100100.16
2019-01-12T10:26:36.795Z,100096.42
2019-01-12T10:29:42.039Z,100094.14
2019-01-12T10:32:47.184Z,100090.55
2019-01-12T10:35:52.389Z,100089.22
2019-01-12T10:38:57.583Z,100092.03
2019-01-12T10:42:02.775Z,100095.34
2019-01-12T10:45:09.823Z,100098.17
2019-01-12T10:48:14.999Z,100102.73
2019-01-12T10:51:20.235Z,100115.33
2019-01-12T10:54:25.483Z,100107.94
2019-01-12T10:57:30.650Z,100087.09
2019-01-12T11:00:38.226Z,100083.30
2019-01-12T11:03:43.531Z,100068.16
2019-01-12T11:06:48.846Z,100057.69
2019-01-12T11:09:54.081Z,100044.16
2019-01-12T11:12:59.291Z,100038.37
2019-01-12T11:16:04.591Z,100025.83
2019-01-12T11:19:09.794Z,100024.18
2019-01-12T11:22:15.063Z,100031.73
2019-01-12T11:25:20.266Z,100011.33
2019-01-12T11:28:25.450Z,100013.75
2019-01-12T11:31:30.705Z,100002.48
2019-01-12T11:34:35.924Z,99996.25
2019-01-12T11:37:41.231Z,99987.02
2019-01-12T11:40:46.449Z,99995.91
2019-01-12T11:43:52.700Z,99996.52
2019-01-12T11:46:57.817Z,99995.14
2019-01-12T11:50:03.064Z,100000.64
2019-01-12T11:53:08.226Z,99994.52
2019-01-12T11:56:13.690Z,99998.12
2019-01-12T11:59:18.960Z,99989.12
2019-01-12T12:02:24.164Z,99982.38
2019-01-12T12:05:29.539Z,99977.83
2019-01-12T12:08:34.659Z,99977.41
2019-01-12T12:11:39.932Z,99970.98
2019-01-12T12:14:45.122Z,99944.79
2019-01-12T12:17:50.424Z,99933.44
2019-01-12T12:20:55.671Z,99932.09
2019-01-12T12:24:00.933Z,99918.22
2019-01-12T12:27:06.281Z,99918.52
2019-01-12T12:30:15.566Z,99917.17
2019-01-12T12:33:20.739Z,99910.93
2019-01-12T12:36:26.003Z,99901.83
2019-01-12T12:39:31.180Z,99899.92
2019-01-12T12:42:36.395Z,99901.55
2019-01-12T12:45:41.560Z,99889.95
2019-01-12T12:48:46.820Z,99874.80
2019-01-12T12:51:52.256Z,99870.59
2019-01-12T12:54:57.501Z,99857.50
2019-01-12T12:58:02.736Z,99860.17
2019-01-12T13:01:07.995Z,99852.76
2019-01-12T13:04:13.304Z,99840.48
2019-01-12T13:07:18.526Z,99844.88
2019-01-12T13:10:43.882Z,99838.94
2019-01-12T13:13:49.031Z,99831.90
2019-01-12T13:16:54.182Z,99813.67
2019-01-12T13:19:59.492Z,99801.59
2019-01-12T13:23:04.755Z,99795.30
2019-01-12T13:26:12.717Z,99790.43
2019-01-12T13:29:17.872Z,99788.23
2019-01-12T13:32:24.704Z,99792.88
2019-01-12T13:35:29.850Z,99797.41
2019-01-12T13:38:35.046Z,99789.67
2019-01-12T13:41:40.260Z,99800.22
2019-01-12T13:44:45.458Z,99777.09
2019-01-12T13:47:50.663Z,99774.70
2019-01-12T13:50:55.975Z,99773.14
2019-01-12T13:54:01.185Z,99775.30
2019-01-12T13:57:06.389Z,99772.98
2019-01-12T14:00:21.326Z,99779.85
2019-01-12T14:03:26.457Z,99774.39
2019-01-12T14:06:31.638Z,99770.33
2019-01-12T14:09:36.856Z,99773.73
2019-01-12T14:12:42.154Z,99750.00
2019-01-12T14:15:47.327Z,99751.19
2019-01-12T14:18:52.555Z,99739.16
2019-01-12T14:21:58.836Z,99734.72
2019-01-12T14:25:04.690Z,99733.45
2019-01-12T14:28:09.947Z,99718.69
2019-01-12T14:31:16.192Z,99710.68
2019-01-12T14:34:21.391Z,99703.52
2019-01-12T14:37:26.637Z,99713.27
2019-01-12T14:40:31.955Z,99714.69
2019-01-12T14:43:37.139Z,99706.63
2019-01-12T14:46:42.291Z,99698.85
2019-01-12T14:49:47.461Z,99695.16
2019-01-12T14:53:04.257Z,99695.20
2019-01-12T14:56:09.428Z,99695.20
2019-01-12T14:59:14.852Z,99683.98
2019-01-12T15:02:20.031Z,99674.97
2019-01-12T15:05:29.986Z,99667.07
2019-01-12T15:08:35.159Z,99659.27
2019-01-12T15:11:40.442Z,99664.30
2019-01-12T15:14:45.671Z,99667.13
2019-01-12T15:17:50.937Z,99658.61
2019-01-12T15:20:56.108Z,99662.16
2019-01-12T15:24:01.271Z,99657.34
2019-01-12T15:27:06.605Z,99651.07
2019-01-12T15:30:15.169Z,99651.91
2019-01-12T15:33:20.373Z,99642.91
2019-01-12T15:36:25.595Z,99641.95
2019-01-12T15:39:30.773Z,99633.17
2019-01-12T15:42:36.007Z,99627.59
2019-01-12T15:45:41.262Z,99629.13
2019-01-12T15:48:46.400Z,99632.77
2019-01-12T15:51:51.602Z,99628.26
2019-01-12T15:54:56.722Z,99625.08
2019-01-12T15:58:01.852Z,99625.48
2019-01-12T16:01:09.723Z,99618.15
2019-01-12T16:04:14.882Z,99617.48
2019-01-12T16:07:20.022Z,99607.84
2019-01-12T16:10:25.180Z,99610.86
2019-01-12T16:13:31.148Z,99606.16
2019-01-12T16:16:36.458Z,99596.98
2019-01-12T16:19:41.697Z,99599.75
2019-01-12T16:22:47.074Z,99603.39
2019-01-12T16:25:52.225Z,99602.06
2019-01-12T16:28:57.380Z,99596.30
2019-01-12T16:32:02.555Z,99588.10
2019-01-12T16:35:07.940Z,99588.56
2019-01-12T16:38:13.056Z,99578.05
2019-01-12T16:41:18.698Z,99579.03
2019-01-12T16:44:24.852Z,99574.82
2019-01-12T16:47:30.049Z,99571.28
2019-01-12T16:50:35.284Z,99567.28
2019-01-12T16:53:40.508Z,99553.56
2019-01-12T16:56:45.647Z,99558.18
2019-01-12T16:59:50.768Z,99549.50
2019-01-12T17:02:56.048Z,99540.45
2019-01-12T17:06:01.294Z,99545.50
2019-01-12T17:09:08.887Z,99539.80
2019-01-12T17:12:14.175Z,99539.80
2019-01-12T17:15:23.154Z,99538.25
2019-01-12T17:18:28.334Z,99535.13
2019-01-12T17:21:33.472Z,99522.02
2019-01-12T17:24:38.660Z,99515.91
2019-01-12T17:27:43.781Z,99502.38
2019-01-12T17:30:48.957Z,99502.57
2019-01-12T17:33:54.135Z,99496.97
2019-01-12T17:36:59.360Z,99489.09
2019-01-12T17:40:05.033Z,99490.86
2019-01-12T17:43:10.180Z,99492.45
2019-01-12T17:46:15.294Z,99495.34
2019-01-12T17:49:20.458Z,99472.11
2019-01-12T17:52:25.625Z,99478.20
2019-01-12T17:55:30.788Z,99475.02
2019-01-12T17:58:35.951Z,99484.45
2019-01-12T18:01:41.242Z,99479.25
2019-01-12T18:04:46.495Z,99483.48
2019-01-12T18:07:51.699Z,99475.91
2019-01-12T18:10:56.867Z,99467.84
2019-01-12T18:14:02.020Z,99465.55
2019-01-12T18:17:07.190Z,99454.70
2019-01-12T18:20:13.735Z,99448.49
2019-01-12T18:23:19.034Z,99450.93
2019-01-12T18:26:24.315Z,99433.45
2019-01-12T18:29:29.529Z,99426.47
2019-01-12T18:32:34.763Z,99424.52
2019-01-12T18:35:41.025Z,99417.81
2019-01-12T18:38:46.204Z,99409.66
2019-01-12T18:41:51.441Z,99415.80
2019-01-12T18:44:56.590Z,99404.80
2019-01-12T18:48:01.836Z,99397.04
2019-01-12T18:51:07.054Z,99396.70
2019-01-12T18:54:12.257Z,99408.39
2019-01-12T18:57:17.620Z,99398.80
2019-01-12T19:00:24.814Z,99392.70
2019-01-12T19:03:30.015Z,99371.97
2019-01-12T19:06:35.248Z,99384.24
2019-01-12T19:09:40.389Z,99382.73
2019-01-12T19:12:45.646Z,99392.62
2019-01-12T19:15:50.828Z,99385.31
2019-01-12T19:18:56.312Z,99382.17
2019-01-12T19:22:01.506Z,99377.31
2019-01-12T19:25:07.866Z,99372.80
2019-01-12T19:28:13.043Z,99380.47
2019-01-12T19:31:18.233Z,99374.92
2019-01-12T19:34:23.437Z,99373.28
2019-01-12T19:37:28.663Z,99376.67
2019-01-12T19:40:33.859Z,99372.77
2019-01-12T19:43:39.031Z,99386.11
2019-01-12T19:46:44.193Z,99386.59
2019-01-12T19:49:49.416Z,99371.56
2019-01-12T19:52:54.610Z,99380.02
2019-01-12T19:55:59.788Z,99361.58
2019-01-12T19:59:04.919Z,99366.57
2019-01-12T20:02:12.972Z,99377.41
2019-01-12T20:05:18.322Z,99375.92
2019-01-12T20:08:28.618Z,99382.60
2019-01-12T20:11:33.786Z,99384.05
2019-01-12T20:14:39.063Z,99374.25
2019-01-12T20:17:44.323Z,99368.48
2019-01-12T20:20:49.568Z,99373.06
2019-01-12T20:23:54.828Z,99359.78
2019-01-12T20:26:59.999Z,99354.56
2019-01-12T20:30:09.789Z,99353.75
2019-01-12T20:33:45.896Z,99321.70
2019-01-12T20:37:30.720Z,99318.30
2019-01-12T20:41:09.592Z,99319.03
2019-01-12T20:44:47.755Z,99322.13
2019-01-12T20:48:17.738Z,99315.51
2019-01-12T20:52:02.749Z,99319.39
2019-01-12T20:55:36.876Z,99318.39
2019-01-12T20:59:07.854Z,99312.91
2019-01-12T21:03:12.298Z,99307.45
2019-01-12T21:07:01.227Z,99312.78
2019-01-12T21:10:42.068Z,99305.84
2019-01-12T21:14:30.559Z,99298.27
2019-01-12T21:17:35.832Z,99303.83
2019-01-12T21:20:40.983Z,99305.98
2019-01-12T21:23:46.337Z,99305.98
2019-01-12T21:26:51.531Z,99304.95
2019-01-12T21:29:56.924Z,99307.31
2019-01-12T21:33:09.288Z,99306.01
2019-01-12T21:36:16.159Z,99291.45
2019-01-12T21:39:21.327Z,99286.76
2019-01-12T21:42:26.459Z,99291.28
2019-01-12T21:45:31.664Z,99292.66
2019-01-12T21:48:36.880Z,99291.08
2019-01-12T21:51:42.178Z,99270.05
2019-01-12T21:54:47.619Z,99274.30
2019-01-12T21:57:54.242Z,99263.98
2019-01-12T22:00:59.541Z,99260.54
2019-01-12T22:04:04.783Z,99275.66
2019-01-12T22:07:10.026Z,99271.66
2019-01-12T22:10:19.272Z,99266.27
2019-01-12T22:13:22.912Z,99270.27
2019-01-12T22:16:28.205Z,99263.16
2019-01-12T22:19:33.395Z,99270.88
2019-01-12T22:22:38.620Z,99261.73
2019-01-12T22:25:43.862Z,99264.45
2019-01-12T22:28:49.061Z,99260.61
2019-01-12T22:31:54.425Z,99263.36
2019-01-12T22:34:59.609Z,99249.44
2019-01-12T22:38:04.784Z,99257.23
2019-01-12T22:41:09.962Z,99264.97
2019-01-12T22:44:15.237Z,99259.11
2019-01-12T22:47:20.338Z,99264.58
2019-01-12T22:50:25.626Z,99260.00
2019-01-12T22:53:31.891Z,99262.03
2019-01-12T22:56:37.118Z,99256.51
2019-01-12T22:59:43.264Z,99258.63
2019-01-12T23:02:48.698Z,99249.67
2019-01-12T23:05:53.919Z,99249.28
2019-01-12T23:08:59.183Z,99255.45
2019-01-12T23:12:04.604Z,99253.69
2019-01-12T23:15:09.889Z,99246.66
2019-01-12T23:18:15.165Z,99240.56
2019-01-12T23:21:20.480Z,99242.02
2019-01-12T23:24:25.772Z,99243.05
2019-01-12T23:27:32.066Z,99243.69
2019-01-12T23:30:37.929Z,99249.28
2019-01-12T23:33:44.305Z,99238.73
2019-01-12T23:36:49.533Z,99228.75
2019-01-12T23:39:54.773Z,99220.97
2019-01-12T23:43:00.948Z,99230.02
2019-01-12T23:46:06.260Z,99233.18
2019-01-12T23:49:11.391Z,99221.15
2019-01-12T23:52:16.666Z,99215.34
2019-01-12T23:55:21.945Z,99220.56
2019-01-12T23:58:27.190Z,99211.17
